AirNav   Everest Fuels
 
 1132 users online  

3FD5 Arnold Palmer Hospital Heliport
Orlando, Florida, USA

GOING TO ORLANDO?


FAA INFORMATION EFFECTIVE 05 DECEMBER 2019

Location

FAA Identifier: 3FD5
Lat/Long: 28-31-23.2400N 081-22-48.6900W
28-31.387333N 081-22.811500W
28.5231222,-81.3801917
(estimated)
Elevation: 150 ft. / 46 m (estimated)
Variation: 03W (1990)
From city: 1 mile S of ORLANDO, FL
Time zone: UTC -5 (UTC -4 during Daylight Saving Time)
Zip code: 32806

Heliport Operations

Heliport use: Private use, MEDICAL USE.
Activation date: 02/1992
Control tower: no
ARTCC: JACKSONVILLE CENTER
FSS: SAINT PETERSBURG FLIGHT SERVICE STATION
Attendance: CONTINUOUS
Wind indicator: yes
Segmented circle: no
Lights: FOR PERIMETER LGTS CALL 407-843-5783.

Heliport Communications

WX ASOS at ORL (2.8 nm NE): PHONE 407-658-6753
WX ASOS at MCO (7 nm SE): PHONE 407-855-5235
WX AWOS-3PT at ISM (14 nm S): 128.775 (407-847-0533)
WX ASOS at SFB (17 nm NE): PHONE 407-321-9384

Nearby radio navigation aids

VOR radial/distance  VOR name  Freq  Var
ORLr244/2.7ORLANDO VORTAC112.2000E

Heliport Services

Runway Information

Helipad H1

Dimensions: 59 x 45 ft. / 18 x 14 m
Surface: concrete
ROOFTOP.
Runway edge lights: PERI
Latitude: 28-31.387333N
Longitude: 081-22.811500W
Elevation: 150.0 ft.
Traffic pattern: leftleft

Heliport Ownership and Management from official FAA records

Ownership: Privately-owned
Owner: ORLANDO HEALTH
92 WEST MILLER ST
ORLANDO, FL 32806
Phone 407-843-5783
ORLAND REGIONAL HEALTH CARE SYSTEMS.
Manager: KAREN THURMOND
52 W. UNDERWOOD ST., MP 42
ORLANDO, FL 32806
Phone 407-841-5111
EXT 8348

Additional Remarks

FOR CD CTC ORLANDO APCH AT 407-852-7553.

Instrument Procedures

There are no published instrument procedures at 3FD5.

Some nearby airports with instrument procedures:

KORL - Executive Airport (3 nm NE)
KMCO - Orlando International Airport (7 nm SE)
KISM - Kissimmee Gateway Airport (14 nm S)
X04 - Orlando Apopka Airport (15 nm NW)
KSFB - Orlando Sanford International Airport (17 nm NE)
 
Loc | Ops | Rwys | IFR | FBO | Links
Com | Nav | Svcs | Stats | Notes


 
Area around 3FD5 (Arnold Palmer Hospital Heliport)
 
Road maps at: MapQuest Bing Google
 
Aerial photo
WARNING: Photo may not be current or correct
Aerial photo of 3FD5 (Arnold Palmer Hospital Heliport)
Photo by Don F. Pease
Photo taken 18-Jan-2005
looking east.

Do you have a better or more recent aerial photo of Arnold Palmer Hospital Heliport that you would like to share? If so, please send us your photo.

 
Sectional chart

 
Airport distance calculator
Flying to Arnold Palmer Hospital Heliport? Find the distance to fly.

From to 3FD5

Sunrise and sunset
Times for 13-Dec-2019
 Local
(UTC-5)
 Zulu
(UTC)
Morning civil twilight06:4411:44
Sunrise07:1012:10
Sunset17:2922:29
Evening civil twilight17:5522:55

Current date and time
Zulu (UTC)  13-Dec-2019 14:02:40
Local (UTC-5)  13-Dec-2019 09:02:40
 
METAR
KORL 
3nm NE 
131353Z 19004KT 10SM BKN049 22/20 A3002 RMK AO2 SLP169 T02170200
KMCO 
7nm S 
131353Z 18004KT 10SM BKN045 BKN080 OVC250 21/20 A3002 RMK AO2 SLP164 T02110200
KISM 
15nm S 
131356Z 00000KT 10SM OVC030 21/21 A3003 RMK AO2 SLP171 T02060206 PNO $
KSFB 
17nm NE 
131353Z 22004KT 10SM BKN110 21/20 A3002 RMK AO2 SLP164 T02110200
TAF
KMCO 
7nm S 
131131Z 1312/1418 00000KT P6SM FEW006 BKN012 OVC100 FM131400 15008KT P6SM SCT022 BKN050 FM132100 21006KT P6SM VCSH BKN035 FM140000 20007KT P6SM SCT030 BKN250 FM141100 25010KT P6SM VCSH SCT030 BKN050
KISM 
15nm S 
131131Z 1312/1412 13004KT P6SM FEW025 OVC100 FM131500 16008KT P6SM SCT022 BKN050 FM132100 21009KT P6SM VCSH BKN035 FM140000 20005KT P6SM SCT030 BKN250 FM141100 25009KT P6SM VCSH SCT030 BKN050
KSFB 
17nm NE 
131131Z 1312/1412 14004KT P6SM SCT022 BKN035 OVC120 FM131500 18008KT P6SM SCT022 BKN050 FM132100 22007KT P6SM VCSH BKN035 FM140000 20006KT P6SM SCT030 BKN250 FM141000 25010KT P6SM VCSH SCT025 BKN050
NOTAMs
Click for the latest NOTAMs
NOTAMs are issued by the DoD/FAA and will open in a separate window not controlled by AirNav.

 

 
 

Would you like to see your business listed on this page?

 If your business provides an interesting product or service to pilots, flight crews, aircraft, or users of the Arnold Palmer Hospital Heliport, you should consider listing it here.  To start the listing process, click on the button below
 
Add a business
 

Other Pages about Arnold Palmer Hospital Heliport

Update a link
 
Copyright © AirNav, LLC. All rights reserved. Privacy Policy  Contact